createdAt,value
2018-10-01T00:00:17.790Z,94.00
2018-10-01T00:03:20.982Z,94.00
2018-10-01T00:06:24.050Z,94.10
2018-10-01T00:09:27.160Z,93.90
2018-10-01T00:12:30.283Z,94.10
2018-10-01T00:15:33.386Z,93.80
2018-10-01T00:18:36.666Z,93.50
2018-10-01T00:21:45.295Z,93.50
2018-10-01T00:24:48.394Z,93.40
2018-10-01T00:27:51.507Z,93.40
2018-10-01T00:30:54.636Z,93.10
2018-10-01T00:33:57.714Z,93.30
2018-10-01T00:37:00.855Z,93.40
2018-10-01T00:40:03.990Z,93.20
2018-10-01T00:43:07.158Z,93.20
2018-10-01T00:46:10.276Z,93.50
2018-10-01T00:49:13.424Z,93.30
2018-10-01T00:52:16.565Z,93.60
2018-10-01T00:55:19.738Z,93.50
2018-10-01T00:58:22.862Z,93.50
2018-10-01T01:01:25.955Z,93.50
2018-10-01T01:04:29.107Z,93.50
2018-10-01T01:07:32.226Z,93.30
2018-10-01T01:10:35.330Z,93.30
2018-10-01T01:13:38.446Z,93.40
2018-10-01T01:16:41.574Z,93.30
2018-10-01T01:19:44.671Z,93.30
2018-10-01T01:22:47.802Z,93.40
2018-10-01T01:25:50.882Z,94.00
2018-10-01T01:28:54.042Z,94.60
2018-10-01T01:31:57.122Z,95.00
2018-10-01T01:35:00.235Z,95.50
2018-10-01T01:38:03.381Z,95.90
2018-10-01T01:41:06.752Z,96.20
2018-10-01T01:44:09.878Z,96.30
2018-10-01T01:47:12.951Z,96.40
2018-10-01T01:50:16.070Z,96.50
2018-10-01T01:53:19.262Z,96.30
2018-10-01T01:56:22.366Z,96.00
2018-10-01T01:59:25.508Z,96.10
2018-10-01T02:02:28.599Z,96.00
2018-10-01T02:05:31.742Z,96.20
2018-10-01T02:08:34.999Z,96.30
2018-10-01T02:11:38.117Z,96.40
2018-10-01T02:14:41.268Z,96.50
2018-10-01T02:17:44.363Z,96.50
2018-10-01T02:20:47.462Z,96.40
2018-10-01T02:23:50.550Z,96.30
2018-10-01T02:26:53.706Z,96.30
2018-10-01T02:29:56.839Z,96.20
2018-10-01T02:32:59.951Z,96.10
2018-10-01T02:36:03.070Z,96.00
2018-10-01T02:39:09.005Z,95.90
2018-10-01T02:42:12.112Z,95.80
2018-10-01T02:45:15.215Z,95.70
2018-10-01T02:48:18.349Z,95.50
2018-10-01T02:51:21.452Z,95.60
2018-10-01T02:54:31.320Z,95.40
2018-10-01T02:57:34.431Z,95.30
2018-10-01T03:00:37.562Z,95.00
2018-10-01T03:03:40.665Z,94.90
2018-10-01T03:06:43.778Z,94.70
2018-10-01T03:09:46.950Z,94.70
2018-10-01T03:12:50.056Z,94.90
2018-10-01T03:15:53.183Z,95.10
2018-10-01T03:18:56.313Z,94.90
2018-10-01T03:21:59.436Z,94.90
2018-10-01T03:25:02.591Z,95.10
2018-10-01T03:28:05.678Z,95.30
2018-10-01T03:31:08.816Z,95.10
2018-10-01T03:34:11.944Z,95.20
2018-10-01T03:37:15.065Z,95.50
2018-10-01T03:40:18.257Z,95.40
2018-10-01T03:43:39.595Z,95.80
2018-10-01T03:46:42.815Z,96.10
2018-10-01T03:49:45.935Z,96.50
2018-10-01T03:52:49.098Z,96.70
2018-10-01T03:55:52.195Z,97.00
2018-10-01T03:58:55.299Z,97.40
2018-10-01T04:01:58.406Z,97.60
2018-10-01T04:05:01.517Z,97.70
2018-10-01T04:08:04.669Z,97.90
2018-10-01T04:11:07.779Z,98.10
2018-10-01T04:14:10.906Z,98.20
2018-10-01T04:17:14.039Z,98.30
2018-10-01T04:20:17.203Z,98.30
2018-10-01T04:23:20.301Z,98.60
2018-10-01T04:26:23.421Z,98.90
2018-10-01T04:29:26.513Z,98.90
2018-10-01T04:32:29.794Z,98.90
2018-10-01T04:35:32.931Z,99.10
2018-10-01T04:38:36.186Z,99.20
2018-10-01T04:41:39.772Z,99.40
2018-10-01T04:44:42.906Z,99.40
2018-10-01T04:47:46.058Z,99.40
2018-10-01T04:50:49.182Z,99.30
2018-10-01T04:53:52.286Z,99.20
2018-10-01T04:56:55.468Z,99.30
2018-10-01T04:59:58.595Z,99.50
2018-10-01T05:03:01.719Z,99.70
2018-10-01T05:06:04.886Z,99.90
2018-10-01T05:09:08.782Z,99.90
2018-10-01T05:12:11.895Z,99.90
2018-10-01T05:15:15.058Z,99.90
2018-10-01T05:18:18.182Z,99.90
2018-10-01T05:21:21.299Z,99.90
2018-10-01T05:24:24.426Z,99.90
2018-10-01T05:27:27.568Z,99.90
2018-10-01T05:30:30.703Z,99.90
2018-10-01T05:33:33.810Z,99.90
2018-10-01T05:36:36.960Z,99.90
2018-10-01T05:39:40.126Z,99.90
2018-10-01T05:42:43.251Z,99.90
2018-10-01T05:45:46.947Z,99.90
2018-10-01T05:48:50.090Z,99.90
2018-10-01T05:51:53.210Z,99.90
2018-10-01T05:54:56.546Z,99.90
2018-10-01T05:57:59.685Z,99.90
2018-10-01T06:01:02.785Z,99.90
2018-10-01T06:04:05.915Z,99.90
2018-10-01T06:07:09.159Z,99.90
2018-10-01T06:10:12.330Z,99.90
2018-10-01T06:13:15.445Z,99.90
2018-10-01T06:16:18.582Z,99.90
2018-10-01T06:19:21.689Z,99.90
2018-10-01T06:22:24.819Z,99.90
2018-10-01T06:25:27.943Z,99.90
2018-10-01T06:28:31.046Z,99.90
2018-10-01T06:31:34.171Z,99.90
2018-10-01T06:34:37.306Z,99.90
2018-10-01T06:37:41.510Z,99.90
2018-10-01T06:40:44.686Z,99.90
2018-10-01T06:43:48.803Z,99.90
2018-10-01T06:46:51.942Z,99.90
2018-10-01T06:49:55.047Z,99.90
2018-10-01T06:52:58.176Z,99.90
2018-10-01T06:56:01.303Z,99.90
2018-10-01T06:59:04.394Z,99.90
2018-10-01T07:02:07.551Z,99.90
2018-10-01T07:05:10.675Z,99.90
2018-10-01T07:08:13.868Z,99.90
2018-10-01T07:11:17.087Z,99.90
2018-10-01T07:14:20.155Z,99.90
2018-10-01T07:17:23.591Z,99.90
2018-10-01T07:20:26.507Z,99.90
2018-10-01T07:23:40.137Z,99.90
2018-10-01T07:26:43.254Z,99.90
2018-10-01T07:29:46.366Z,99.90
2018-10-01T07:32:49.482Z,99.90
2018-10-01T07:35:52.654Z,99.90
2018-10-01T07:38:55.765Z,99.90
2018-10-01T07:41:58.941Z,99.90
2018-10-01T07:45:02.142Z,99.90
2018-10-01T07:48:05.243Z,99.90
2018-10-01T07:51:12.870Z,99.90
2018-10-01T07:54:16.043Z,99.90
2018-10-01T07:57:19.276Z,99.90
2018-10-01T08:00:22.468Z,99.90
2018-10-01T08:03:25.528Z,99.90
2018-10-01T08:06:28.702Z,99.90
2018-10-01T08:09:32.021Z,99.90
2018-10-01T08:12:35.048Z,99.90
2018-10-01T08:15:38.185Z,99.90
2018-10-01T08:18:41.337Z,99.90
2018-10-01T08:21:44.474Z,99.90
2018-10-01T08:24:47.604Z,99.90
2018-10-01T08:27:50.739Z,99.90
2018-10-01T08:30:53.856Z,99.90
2018-10-01T08:33:57.011Z,99.90
2018-10-01T08:37:00.166Z,99.90
2018-10-01T08:40:03.307Z,99.90
2018-10-01T08:43:06.422Z,99.90
2018-10-01T08:46:09.603Z,99.90
2018-10-01T08:49:18.042Z,99.90
2018-10-01T08:52:26.566Z,99.90
2018-10-01T08:55:29.826Z,99.90
2018-10-01T08:58:33.003Z,99.90
2018-10-01T09:01:36.102Z,99.90
2018-10-01T09:04:39.222Z,99.90
2018-10-01T09:07:54.131Z,99.90
2018-10-01T09:10:57.254Z,99.90
2018-10-01T09:14:00.443Z,99.90
2018-10-01T09:17:03.692Z,99.90
2018-10-01T09:20:07.165Z,99.90
2018-10-01T09:23:10.349Z,99.90
2018-10-01T09:26:13.515Z,99.80
2018-10-01T09:29:16.687Z,98.20
2018-10-01T09:32:19.793Z,96.40
2018-10-01T09:35:22.935Z,96.60
2018-10-01T09:38:26.181Z,96.90
2018-10-01T09:41:29.252Z,97.20
2018-10-01T09:44:32.477Z,95.50
2018-10-01T09:47:35.540Z,95.00
2018-10-01T09:50:38.695Z,95.30
2018-10-01T09:53:41.896Z,95.40
2018-10-01T09:56:44.988Z,95.70
2018-10-01T09:59:48.114Z,96.20
2018-10-01T10:02:51.263Z,96.40
2018-10-01T10:05:54.477Z,96.70
2018-10-01T10:08:57.617Z,97.40
2018-10-01T10:12:00.741Z,97.70
2018-10-01T10:15:03.894Z,97.60
2018-10-01T10:18:07.034Z,96.90
2018-10-01T10:21:10.118Z,96.70
2018-10-01T10:24:13.268Z,96.30
2018-10-01T10:27:16.461Z,95.90
2018-10-01T10:30:19.611Z,95.50
2018-10-01T10:33:22.871Z,95.50
2018-10-01T10:36:26.386Z,95.30
2018-10-01T10:39:32.937Z,94.90
2018-10-01T10:42:41.216Z,94.60
2018-10-01T10:45:44.413Z,93.60
2018-10-01T10:48:47.542Z,92.80
2018-10-01T10:51:50.671Z,92.40
2018-10-01T10:54:53.794Z,92.70
2018-10-01T10:57:57.060Z,92.60
2018-10-01T11:01:00.180Z,92.30
2018-10-01T11:04:03.286Z,92.60
2018-10-01T11:07:06.498Z,92.70
2018-10-01T11:10:09.574Z,91.80
2018-10-01T11:13:12.675Z,91.20
2018-10-01T11:16:16.147Z,88.70
2018-10-01T11:19:19.427Z,88.70
2018-10-01T11:22:22.417Z,87.90
2018-10-01T11:25:25.671Z,89.50
2018-10-01T11:28:28.668Z,90.60
2018-10-01T11:31:31.758Z,90.00
2018-10-01T11:34:35.044Z,89.90
2018-10-01T11:37:38.106Z,90.60
2018-10-01T11:40:41.227Z,91.20
2018-10-01T11:43:44.339Z,91.70
2018-10-01T11:46:47.656Z,92.00
2018-10-01T11:49:50.803Z,92.10
2018-10-01T11:52:53.898Z,91.70
2018-10-01T11:55:56.994Z,90.90
2018-10-01T11:59:00.114Z,90.20
2018-10-01T12:02:03.224Z,90.10
2018-10-01T12:05:07.148Z,87.40
2018-10-01T12:08:10.254Z,89.40
2018-10-01T12:11:13.634Z,90.10
2018-10-01T12:14:16.762Z,89.80
2018-10-01T12:17:19.887Z,89.60
2018-10-01T12:20:23.018Z,90.00
2018-10-01T12:23:26.176Z,88.50
2018-10-01T12:26:29.290Z,88.90
2018-10-01T12:29:32.431Z,87.00
2018-10-01T12:32:35.551Z,84.40
2018-10-01T12:35:38.771Z,84.40
2018-10-01T12:38:41.858Z,85.80
2018-10-01T12:41:45.007Z,86.00
2018-10-01T12:44:48.111Z,85.70
2018-10-01T12:47:51.259Z,85.00
2018-10-01T12:50:54.652Z,85.40
2018-10-01T12:53:57.797Z,86.20
2018-10-01T12:57:00.998Z,86.90
2018-10-01T13:00:04.196Z,88.10
2018-10-01T13:03:07.387Z,86.80
2018-10-01T13:06:10.517Z,86.60
2018-10-01T13:09:13.618Z,85.70
2018-10-01T13:12:16.762Z,84.70
2018-10-01T13:15:19.943Z,84.80
2018-10-01T13:18:23.047Z,84.70
2018-10-01T13:21:26.199Z,84.10
2018-10-01T13:24:29.412Z,83.50
2018-10-01T13:27:32.470Z,83.70
2018-10-01T13:30:35.626Z,83.70
2018-10-01T13:33:38.743Z,84.70
2018-10-01T13:36:41.971Z,84.20
2018-10-01T13:39:45.158Z,84.90
2018-10-01T13:42:48.398Z,85.40
2018-10-01T13:45:51.492Z,85.80
2018-10-01T13:48:54.603Z,86.30
2018-10-01T13:51:57.730Z,87.30
2018-10-01T13:55:00.884Z,89.50
2018-10-01T13:58:04.033Z,91.80
2018-10-01T14:01:07.156Z,94.00
2018-10-01T14:04:10.249Z,97.70
2018-10-01T14:07:13.463Z,99.90
2018-10-01T14:10:16.494Z,99.90
2018-10-01T14:13:19.762Z,99.90
2018-10-01T14:16:22.788Z,99.90
2018-10-01T14:19:25.966Z,99.90
2018-10-01T14:22:29.075Z,99.90
2018-10-01T14:25:32.338Z,99.90
2018-10-01T14:28:35.584Z,99.90
2018-10-01T14:31:38.730Z,99.90
2018-10-01T14:34:41.822Z,99.90
2018-10-01T14:37:44.955Z,99.90
2018-10-01T14:40:48.054Z,99.90
2018-10-01T14:43:51.270Z,99.90
2018-10-01T14:46:54.353Z,99.90
2018-10-01T14:49:57.491Z,99.90
2018-10-01T14:53:00.591Z,99.90
2018-10-01T14:56:03.698Z,99.90
2018-10-01T14:59:06.819Z,99.90
2018-10-01T15:02:09.962Z,99.90
2018-10-01T15:05:13.210Z,99.90
2018-10-01T15:08:16.325Z,99.90
2018-10-01T15:11:19.461Z,99.90
2018-10-01T15:14:22.592Z,99.90
2018-10-01T15:17:25.702Z,99.90
2018-10-01T15:20:28.781Z,99.90
2018-10-01T15:23:31.923Z,99.90
2018-10-01T15:26:35.044Z,99.90
2018-10-01T15:29:38.173Z,99.90
2018-10-01T15:32:41.663Z,99.90
2018-10-01T15:35:44.774Z,99.90
2018-10-01T15:38:47.902Z,99.90
2018-10-01T15:41:51.031Z,99.90
2018-10-01T15:44:54.106Z,99.90
2018-10-01T15:47:57.198Z,99.90
2018-10-01T15:51:00.339Z,99.90
2018-10-01T15:54:03.426Z,99.90
2018-10-01T15:57:11.560Z,99.90
2018-10-01T16:00:14.743Z,99.90
2018-10-01T16:03:17.892Z,99.90
2018-10-01T16:06:20.914Z,99.90
2018-10-01T16:09:24.041Z,99.90
2018-10-01T16:12:27.193Z,99.90
2018-10-01T16:15:30.347Z,99.90
2018-10-01T16:18:33.479Z,99.90
2018-10-01T16:21:36.576Z,99.90
2018-10-01T16:24:39.754Z,99.90
2018-10-01T16:27:48.498Z,99.90
2018-10-01T16:30:51.590Z,99.90
2018-10-01T16:33:54.731Z,99.90
2018-10-01T16:36:57.870Z,99.90
2018-10-01T16:40:00.998Z,99.90
2018-10-01T16:43:04.151Z,99.90
2018-10-01T16:46:07.393Z,99.90
2018-10-01T16:49:15.736Z,99.90
2018-10-01T16:52:18.892Z,99.90
2018-10-01T16:55:21.990Z,99.90
2018-10-01T16:58:25.144Z,99.90
2018-10-01T17:01:28.250Z,99.90
2018-10-01T17:04:31.351Z,99.90
2018-10-01T17:07:34.701Z,99.90
2018-10-01T17:10:37.792Z,99.90
2018-10-01T17:13:40.946Z,99.90
2018-10-01T17:16:44.050Z,99.90
2018-10-01T17:19:47.152Z,99.90
2018-10-01T17:22:50.328Z,99.90
2018-10-01T17:25:53.443Z,99.90
2018-10-01T17:28:56.585Z,99.90
2018-10-01T17:31:59.744Z,99.90
2018-10-01T17:35:02.853Z,99.90
2018-10-01T17:38:06.122Z,99.90
2018-10-01T17:41:09.215Z,99.90
2018-10-01T17:44:12.358Z,99.90
2018-10-01T17:47:15.466Z,99.90
2018-10-01T17:50:18.672Z,99.90
2018-10-01T17:53:21.784Z,99.90
2018-10-01T17:56:24.913Z,99.90
2018-10-01T17:59:28.062Z,99.90
2018-10-01T18:02:31.250Z,99.90
2018-10-01T18:05:34.445Z,99.90
2018-10-01T18:08:37.567Z,99.90
2018-10-01T18:11:40.768Z,99.90
2018-10-01T18:14:43.883Z,99.90
2018-10-01T18:17:47.035Z,99.90
2018-10-01T18:20:50.114Z,99.90
2018-10-01T18:23:53.287Z,99.90
2018-10-01T18:26:56.354Z,99.90
2018-10-01T18:29:59.671Z,99.90
2018-10-01T18:33:03.220Z,99.90
2018-10-01T18:36:06.411Z,99.90
2018-10-01T18:39:17.382Z,99.90
2018-10-01T18:42:20.640Z,99.90
2018-10-01T18:45:23.714Z,99.90
2018-10-01T18:48:26.892Z,99.90
2018-10-01T18:51:30.014Z,99.90
2018-10-01T18:54:33.092Z,99.90
2018-10-01T18:57:36.277Z,99.90
2018-10-01T19:00:39.294Z,99.90
2018-10-01T19:03:42.423Z,99.90
2018-10-01T19:06:45.571Z,99.90
2018-10-01T19:09:48.714Z,99.90
2018-10-01T19:12:57.666Z,99.90
2018-10-01T19:16:00.798Z,99.90
2018-10-01T19:19:03.903Z,99.90
2018-10-01T19:22:07.062Z,99.90
2018-10-01T19:25:10.169Z,99.90
2018-10-01T19:28:13.310Z,99.90
2018-10-01T19:31:16.434Z,99.90
2018-10-01T19:34:19.554Z,99.90
2018-10-01T19:37:22.662Z,99.90
2018-10-01T19:40:26.014Z,99.90
2018-10-01T19:43:29.263Z,99.90
2018-10-01T19:46:32.342Z,99.90
2018-10-01T19:49:35.437Z,99.90
2018-10-01T19:52:38.554Z,99.90
2018-10-01T19:55:41.649Z,99.90
2018-10-01T19:58:51.624Z,99.90
2018-10-01T20:01:54.679Z,99.90
2018-10-01T20:04:57.856Z,99.90
2018-10-01T20:08:00.879Z,99.90
2018-10-01T20:11:04.033Z,99.90
2018-10-01T20:14:07.174Z,99.90
2018-10-01T20:17:10.307Z,99.90
2018-10-01T20:20:13.386Z,99.90
2018-10-01T20:23:16.501Z,99.90
2018-10-01T20:26:19.702Z,99.90
2018-10-01T20:29:23.134Z,99.90
2018-10-01T20:32:26.038Z,99.90
2018-10-01T20:35:29.215Z,99.90
2018-10-01T20:38:32.316Z,99.90
2018-10-01T20:41:35.451Z,99.90
2018-10-01T20:44:38.594Z,99.90
2018-10-01T20:47:41.724Z,99.90
2018-10-01T20:50:44.830Z,99.90
2018-10-01T20:53:48.041Z,99.90
2018-10-01T20:56:51.094Z,99.90
2018-10-01T20:59:54.271Z,99.90
2018-10-01T21:03:11.398Z,99.90
2018-10-01T21:06:14.510Z,99.90
2018-10-01T21:09:17.622Z,99.90
2018-10-01T21:12:20.759Z,99.90
2018-10-01T21:15:23.972Z,99.90
2018-10-01T21:18:27.141Z,99.90
2018-10-01T21:21:30.414Z,99.90
2018-10-01T21:24:33.555Z,99.90
2018-10-01T21:27:36.682Z,99.90
2018-10-01T21:30:39.859Z,99.90
2018-10-01T21:33:42.970Z,99.90
2018-10-01T21:36:46.086Z,99.90
2018-10-01T21:39:57.506Z,99.90
2018-10-01T21:43:00.601Z,99.90
2018-10-01T21:46:03.720Z,99.90
2018-10-01T21:49:06.847Z,99.90
2018-10-01T21:52:09.958Z,99.90
2018-10-01T21:55:13.083Z,99.90
2018-10-01T21:58:16.180Z,99.90
2018-10-01T22:01:24.863Z,99.90
2018-10-01T22:04:27.978Z,99.90
2018-10-01T22:07:31.103Z,99.90
2018-10-01T22:10:34.211Z,99.90
2018-10-01T22:13:37.335Z,99.90
2018-10-01T22:16:40.459Z,99.90
2018-10-01T22:19:43.638Z,99.90
2018-10-01T22:22:46.739Z,99.90
2018-10-01T22:25:49.918Z,99.90
2018-10-01T22:28:53.070Z,99.90
2018-10-01T22:31:56.161Z,99.90
2018-10-01T22:34:59.265Z,99.90
2018-10-01T22:38:02.350Z,99.90
2018-10-01T22:41:05.462Z,99.90
2018-10-01T22:44:08.689Z,99.90
2018-10-01T22:47:12.246Z,99.90
2018-10-01T22:50:21.842Z,99.90
2018-10-01T22:53:24.987Z,99.90
2018-10-01T22:56:28.243Z,99.90
2018-10-01T22:59:31.358Z,99.90
2018-10-01T23:02:34.466Z,99.90
2018-10-01T23:05:37.569Z,99.90
2018-10-01T23:08:40.678Z,99.90
2018-10-01T23:11:43.802Z,99.90
2018-10-01T23:14:46.921Z,99.90
2018-10-01T23:17:50.038Z,99.90
2018-10-01T23:20:53.135Z,99.90
2018-10-01T23:23:56.233Z,99.90
2018-10-01T23:26:59.322Z,99.90
2018-10-01T23:30:02.443Z,99.90
2018-10-01T23:33:05.698Z,99.90
2018-10-01T23:36:08.813Z,99.90
2018-10-01T23:39:11.915Z,99.90
2018-10-01T23:42:15.044Z,99.90
2018-10-01T23:45:18.139Z,99.90
2018-10-01T23:48:21.250Z,99.90
2018-10-01T23:51:24.341Z,99.90
2018-10-01T23:54:27.469Z,99.90
2018-10-01T23:57:30.542Z,99.90
